createdAt,value
2023-03-01T00:01:13.847Z,8.57
2023-03-01T00:03:42.227Z,9.20
2023-03-01T00:06:10.530Z,8.30
2023-03-01T00:08:38.724Z,7.67
2023-03-01T00:11:07.967Z,7.33
2023-03-01T00:13:38.114Z,8.10
2023-03-01T00:16:06.556Z,8.13
2023-03-01T00:18:34.859Z,8.93
2023-03-01T00:21:03.304Z,8.50
2023-03-01T00:23:31.681Z,8.77
2023-03-01T00:26:00.122Z,7.97
2023-03-01T00:28:28.263Z,8.43
2023-03-01T00:30:57.865Z,7.53
2023-03-01T00:33:26.041Z,7.27
2023-03-01T00:35:54.279Z,7.90
2023-03-01T00:38:22.447Z,8.00
2023-03-01T00:40:50.625Z,8.07
2023-03-01T00:43:18.792Z,9.10
2023-03-01T00:45:46.974Z,8.80
2023-03-01T00:48:16.512Z,8.37
2023-03-01T00:50:44.682Z,7.97
2023-03-01T00:53:12.884Z,8.20
2023-03-01T00:55:41.036Z,8.17
2023-03-01T00:58:09.178Z,7.87
2023-03-01T01:00:37.516Z,8.03
2023-03-01T01:03:05.670Z,8.00
2023-03-01T01:05:36.756Z,7.60
2023-03-01T01:08:04.961Z,9.00
2023-03-01T01:10:33.142Z,8.07
2023-03-01T01:13:01.295Z,7.90
2023-03-01T01:15:29.465Z,8.07
2023-03-01T01:17:57.621Z,7.67
2023-03-01T01:20:25.817Z,8.03
2023-03-01T01:22:55.406Z,7.43
2023-03-01T01:25:25.828Z,7.93
2023-03-01T01:27:53.970Z,7.70
2023-03-01T01:30:22.233Z,8.33
2023-03-01T01:32:50.398Z,7.90
2023-03-01T01:35:18.614Z,8.20
2023-03-01T01:37:46.810Z,8.57
2023-03-01T01:40:16.652Z,8.47
2023-03-01T01:42:44.869Z,8.23
2023-03-01T01:45:30.246Z,7.70
2023-03-01T01:48:00.928Z,7.90
2023-03-01T01:50:39.264Z,7.70
2023-03-01T01:53:09.380Z,8.37
2023-03-01T01:55:39.826Z,8.47
2023-03-01T01:58:09.812Z,8.20
2023-03-01T02:00:39.718Z,8.97
2023-03-01T02:03:10.924Z,7.77
2023-03-01T02:05:41.320Z,8.60
2023-03-01T02:08:11.042Z,8.77
2023-03-01T02:10:41.080Z,8.53
2023-03-01T02:13:09.509Z,8.43
2023-03-01T02:15:38.458Z,8.80
2023-03-01T02:18:07.642Z,8.43
2023-03-01T02:20:37.494Z,8.43
2023-03-01T02:23:06.676Z,8.27
2023-03-01T02:25:39.016Z,8.43
2023-03-01T02:28:11.141Z,8.27
2023-03-01T02:31:01.105Z,8.07
2023-03-01T02:33:28.649Z,8.57
2023-03-01T02:35:57.661Z,9.13
2023-03-01T02:38:26.191Z,8.50
2023-03-01T02:40:54.747Z,8.37
2023-03-01T02:43:23.640Z,8.43
2023-03-01T02:45:53.907Z,8.60
2023-03-01T02:48:22.501Z,9.27
2023-03-01T02:51:05.177Z,8.60
2023-03-01T02:53:37.980Z,8.53
2023-03-01T02:56:06.553Z,8.43
2023-03-01T02:58:41.467Z,8.57
2023-03-01T03:01:11.076Z,8.63
2023-03-01T03:03:39.290Z,8.80
2023-03-01T03:06:07.726Z,9.50
2023-03-01T03:08:36.065Z,9.93
2023-03-01T03:11:04.317Z,9.00
2023-03-01T03:13:33.165Z,9.20
2023-03-01T03:16:01.333Z,8.80
2023-03-01T03:18:30.825Z,8.97
2023-03-01T03:20:59.123Z,9.40
2023-03-01T03:23:28.053Z,8.50
2023-03-01T03:25:56.258Z,8.97
2023-03-01T03:28:24.622Z,8.93
2023-03-01T03:30:52.824Z,8.57
2023-03-01T03:33:21.005Z,8.23
2023-03-01T03:35:51.351Z,10.03
2023-03-01T03:38:22.812Z,9.17
2023-03-01T03:40:52.489Z,8.20
2023-03-01T03:43:21.474Z,8.83
2023-03-01T03:45:50.136Z,9.43
2023-03-01T03:48:19.325Z,8.77
2023-03-01T03:50:51.916Z,8.57
2023-03-01T03:53:20.666Z,8.30
2023-03-01T03:55:50.229Z,8.63
2023-03-01T03:58:20.647Z,8.63
2023-03-01T04:00:50.482Z,8.77
2023-03-01T04:03:19.644Z,9.13
2023-03-01T04:05:48.245Z,8.87
2023-03-01T04:08:17.871Z,8.83
2023-03-01T04:10:46.958Z,9.23
2023-03-01T04:13:15.983Z,9.03
2023-03-01T04:15:44.876Z,9.27
2023-03-01T04:18:14.624Z,8.50
2023-03-01T04:20:43.194Z,9.57
2023-03-01T04:23:14.294Z,8.57
2023-03-01T04:25:44.624Z,9.50
2023-03-01T04:28:12.816Z,9.33
2023-03-01T04:30:42.293Z,8.47
2023-03-01T04:33:11.503Z,9.70
2023-03-01T04:35:41.297Z,8.83
2023-03-01T04:38:09.842Z,8.90
2023-03-01T04:40:38.192Z,8.83
2023-03-01T04:43:07.746Z,9.37
2023-03-01T04:45:36.654Z,9.70
2023-03-01T04:48:04.934Z,8.90
2023-03-01T04:50:33.188Z,8.90
2023-03-01T04:53:01.377Z,9.77
2023-03-01T04:55:30.058Z,9.27
2023-03-01T04:57:58.593Z,9.90
2023-03-01T05:00:28.121Z,9.03
2023-03-01T05:02:57.130Z,9.30
2023-03-01T05:05:28.204Z,9.33
2023-03-01T05:07:57.225Z,9.77
2023-03-01T05:10:25.881Z,8.90
2023-03-01T05:12:54.292Z,9.77
2023-03-01T05:15:26.405Z,8.83
2023-03-01T05:17:56.478Z,9.33
2023-03-01T05:20:24.895Z,9.37
2023-03-01T05:22:53.103Z,9.97
2023-03-01T05:25:22.366Z,8.80
2023-03-01T05:27:51.000Z,9.57
2023-03-01T05:30:19.520Z,9.40
2023-03-01T05:32:48.823Z,8.67
2023-03-01T05:35:19.370Z,9.63
2023-03-01T05:37:48.394Z,9.77
2023-03-01T05:40:17.810Z,9.73
2023-03-01T05:42:46.249Z,9.23
2023-03-01T05:45:15.821Z,10.27
2023-03-01T05:47:45.335Z,9.70
2023-03-01T05:50:14.481Z,9.53
2023-03-01T05:52:44.005Z,9.93
2023-03-01T05:55:12.904Z,10.47
2023-03-01T05:57:41.067Z,9.93
2023-03-01T06:00:10.013Z,9.53
2023-03-01T06:02:38.830Z,9.53
2023-03-01T06:05:07.771Z,10.27
2023-03-01T06:07:36.279Z,9.80
2023-03-01T06:10:05.993Z,9.43
2023-03-01T06:12:34.168Z,9.57
2023-03-01T06:15:02.715Z,10.07
2023-03-01T06:17:32.654Z,10.07
2023-03-01T06:20:01.997Z,9.90
2023-03-01T06:22:30.165Z,10.77
2023-03-01T06:24:58.332Z,9.90
2023-03-01T06:27:27.870Z,9.97
2023-03-01T06:29:56.182Z,10.37
2023-03-01T06:32:24.400Z,9.73
2023-03-01T06:34:52.907Z,10.80
2023-03-01T06:37:21.119Z,10.67
2023-03-01T06:39:49.286Z,10.57
2023-03-01T06:42:17.502Z,10.03
2023-03-01T06:44:47.829Z,10.80
2023-03-01T06:47:16.004Z,10.90
2023-03-01T06:49:44.229Z,10.63
2023-03-01T06:52:12.360Z,10.53
2023-03-01T06:54:40.550Z,10.87
2023-03-01T06:57:08.759Z,11.00
2023-03-01T06:59:36.943Z,11.17
2023-03-01T07:02:06.454Z,11.63
2023-03-01T07:04:34.734Z,10.73
2023-03-01T07:07:02.888Z,11.80
2023-03-01T07:09:31.223Z,10.67
2023-03-01T07:11:59.443Z,9.80
2023-03-01T07:14:27.877Z,10.70
2023-03-01T07:16:56.065Z,10.40
2023-03-01T07:19:25.712Z,9.57
2023-03-01T07:21:53.879Z,9.40
2023-03-01T07:24:22.029Z,9.07
2023-03-01T07:26:51.175Z,9.17
2023-03-01T07:29:19.349Z,9.40
2023-03-01T07:31:47.800Z,9.17
2023-03-01T07:34:15.994Z,9.90
2023-03-01T07:36:46.246Z,9.33
2023-03-01T07:39:14.496Z,9.27
2023-03-01T07:41:42.653Z,9.20
2023-03-01T07:44:11.684Z,9.27
2023-03-01T07:46:39.813Z,9.27
2023-03-01T07:49:10.741Z,9.33
2023-03-01T07:51:38.919Z,8.50
2023-03-01T07:54:08.535Z,9.33
2023-03-01T07:56:36.756Z,9.40
2023-03-01T07:59:04.955Z,9.00
2023-03-01T08:01:33.170Z,9.00
2023-03-01T08:04:01.366Z,9.57
2023-03-01T08:06:29.843Z,9.20
2023-03-01T08:08:59.263Z,9.27
2023-03-01T08:11:29.769Z,9.00
2023-03-01T08:13:58.385Z,9.10
2023-03-01T08:16:27.025Z,9.03
2023-03-01T08:18:57.497Z,8.73
2023-03-01T08:21:25.692Z,8.40
2023-03-01T08:23:54.145Z,9.03
2023-03-01T08:26:23.942Z,9.20
2023-03-01T08:28:53.428Z,9.20
2023-03-01T08:31:22.718Z,9.60
2023-03-01T08:33:56.028Z,9.23
2023-03-01T08:36:24.956Z,9.67
2023-03-01T08:38:53.137Z,9.13
2023-03-01T08:41:21.351Z,9.53
2023-03-01T08:43:49.557Z,9.57
2023-03-01T08:46:19.451Z,10.33
2023-03-01T08:48:47.716Z,9.00
2023-03-01T08:51:17.264Z,9.23
2023-03-01T08:53:46.260Z,9.10
2023-03-01T08:56:14.952Z,9.67
2023-03-01T08:58:46.169Z,10.13
2023-03-01T09:01:15.610Z,9.73
2023-03-01T09:03:45.368Z,9.37
2023-03-01T09:06:14.756Z,8.90
2023-03-01T09:08:43.892Z,9.50
2023-03-01T09:11:13.834Z,10.73
2023-03-01T09:13:44.282Z,10.47
2023-03-01T09:16:13.595Z,9.93
2023-03-01T09:18:42.103Z,9.93
2023-03-01T09:21:12.537Z,10.30
2023-03-01T09:23:41.410Z,9.87
2023-03-01T09:26:10.378Z,10.43
2023-03-01T09:28:38.933Z,10.00
2023-03-01T09:31:07.352Z,9.90
2023-03-01T09:33:35.984Z,10.23
2023-03-01T09:36:05.430Z,10.20
2023-03-01T09:38:35.327Z,9.30
2023-03-01T09:41:03.897Z,10.47
2023-03-01T09:43:34.246Z,9.93
2023-03-01T09:46:06.065Z,9.73
2023-03-01T09:48:39.884Z,10.73
2023-03-01T09:51:10.174Z,9.80
2023-03-01T09:53:39.684Z,10.60
2023-03-01T09:56:13.064Z,10.30
2023-03-01T09:58:44.196Z,10.00
2023-03-01T10:01:20.732Z,10.27
2023-03-01T10:03:56.512Z,9.73
2023-03-01T10:06:34.456Z,10.67
2023-03-01T10:09:07.112Z,11.00
2023-03-01T10:11:41.252Z,10.50
2023-03-01T10:14:10.087Z,10.43
2023-03-01T10:16:43.097Z,10.27
2023-03-01T10:19:13.269Z,10.70
2023-03-01T10:21:44.141Z,10.53
2023-03-01T10:24:15.880Z,10.20
2023-03-01T10:26:53.271Z,10.10
2023-03-01T10:29:23.036Z,10.87
2023-03-01T10:31:52.064Z,10.47
2023-03-01T10:34:21.264Z,10.83
2023-03-01T10:36:51.053Z,10.57
2023-03-01T10:39:21.700Z,10.63
2023-03-01T10:42:00.771Z,10.73
2023-03-01T10:44:46.039Z,10.43
2023-03-01T10:47:21.112Z,10.70
2023-03-01T10:50:00.061Z,11.23
2023-03-01T10:52:30.123Z,10.87
2023-03-01T10:55:00.532Z,10.83
2023-03-01T10:57:37.098Z,11.47
2023-03-01T11:00:20.478Z,10.03
2023-03-01T11:02:50.795Z,10.47
2023-03-01T11:05:21.486Z,11.63
2023-03-01T11:07:50.577Z,11.00
2023-03-01T11:10:21.395Z,10.67
2023-03-01T11:12:49.721Z,11.30
2023-03-01T11:15:26.182Z,11.07
2023-03-01T11:18:02.866Z,10.77
2023-03-01T11:20:38.391Z,9.93
2023-03-01T11:23:08.527Z,10.30
2023-03-01T11:25:40.430Z,9.50
2023-03-01T11:28:10.522Z,10.17
2023-03-01T11:30:42.337Z,9.90
2023-03-01T11:33:16.170Z,10.23
2023-03-01T11:35:45.618Z,10.33
2023-03-01T11:38:19.650Z,10.00
2023-03-01T11:40:54.323Z,10.30
2023-03-01T11:43:26.197Z,10.77
2023-03-01T11:46:00.387Z,9.53
2023-03-01T11:48:48.891Z,10.67
2023-03-01T11:51:21.061Z,10.67
2023-03-01T11:54:04.155Z,10.80
2023-03-01T11:56:37.338Z,10.50
2023-03-01T11:59:20.135Z,10.47
2023-03-01T12:01:57.923Z,11.03
2023-03-01T12:04:44.020Z,10.50
2023-03-01T12:07:14.605Z,11.20
2023-03-01T12:09:51.800Z,10.03
2023-03-01T12:12:30.076Z,9.90
2023-03-01T12:15:02.964Z,9.73
2023-03-01T12:17:38.894Z,10.50
2023-03-01T12:20:29.746Z,9.87
2023-03-01T12:23:19.668Z,9.60
2023-03-01T12:25:51.456Z,10.27
2023-03-01T12:28:30.111Z,10.10
2023-03-01T12:31:06.371Z,10.60
2023-03-01T12:33:40.372Z,10.43
2023-03-01T12:36:16.976Z,11.50
2023-03-01T12:38:46.949Z,11.30
2023-03-01T12:41:31.264Z,11.57
2023-03-01T12:44:06.781Z,11.50
2023-03-01T12:46:41.031Z,11.53
2023-03-01T12:49:11.690Z,11.93
2023-03-01T12:51:40.758Z,11.90
2023-03-01T12:54:14.548Z,11.17
2023-03-01T12:56:43.096Z,11.03
2023-03-01T12:59:16.131Z,12.17
2023-03-01T13:01:47.940Z,11.10
2023-03-01T13:04:20.471Z,11.43
2023-03-01T13:06:54.739Z,11.30
2023-03-01T13:09:26.880Z,10.03
2023-03-01T13:11:55.031Z,11.27
2023-03-01T13:14:46.327Z,10.93
2023-03-01T13:17:34.392Z,10.50
2023-03-01T13:20:03.943Z,10.47
2023-03-01T13:22:37.993Z,10.50
2023-03-01T13:25:15.413Z,10.13
2023-03-01T13:27:45.227Z,11.17
2023-03-01T13:30:29.418Z,10.13
2023-03-01T13:33:21.262Z,10.03
2023-03-01T13:35:50.964Z,10.80
2023-03-01T13:38:37.863Z,10.77
2023-03-01T13:41:06.486Z,11.20
2023-03-01T13:43:37.174Z,10.10
2023-03-01T13:46:11.996Z,10.07
2023-03-01T13:48:40.912Z,10.33
2023-03-01T13:51:11.913Z,10.43
2023-03-01T13:53:42.494Z,10.47
2023-03-01T13:56:11.912Z,10.07
2023-03-01T13:58:50.685Z,10.30
2023-03-01T14:01:26.695Z,9.13
2023-03-01T14:03:55.312Z,9.47
2023-03-01T14:06:25.573Z,9.23
2023-03-01T14:08:55.276Z,9.17
2023-03-01T14:11:30.445Z,9.40
2023-03-01T14:14:08.428Z,8.80
2023-03-01T14:16:44.843Z,8.60
2023-03-01T14:19:32.021Z,8.73
2023-03-01T14:22:05.274Z,9.53
2023-03-01T14:24:34.591Z,8.83
2023-03-01T14:27:03.613Z,9.17
2023-03-01T14:29:37.016Z,9.53
2023-03-01T14:32:12.005Z,8.57
2023-03-01T14:34:45.057Z,8.83
2023-03-01T14:37:20.331Z,8.47
2023-03-01T14:39:48.777Z,9.47
2023-03-01T14:42:17.725Z,9.50
2023-03-01T14:44:46.283Z,9.40
2023-03-01T14:47:15.548Z,8.83
2023-03-01T14:49:43.796Z,9.80
2023-03-01T14:52:20.704Z,9.07
2023-03-01T14:54:50.296Z,9.57
2023-03-01T14:57:19.696Z,9.57
2023-03-01T14:59:48.717Z,9.13
2023-03-01T15:02:20.054Z,9.10
2023-03-01T15:04:49.210Z,8.60
2023-03-01T15:07:19.050Z,8.93
2023-03-01T15:09:47.878Z,9.10
2023-03-01T15:12:37.532Z,9.20
2023-03-01T15:15:20.629Z,8.13
2023-03-01T15:17:53.689Z,8.80
2023-03-01T15:20:22.594Z,9.47
2023-03-01T15:22:52.107Z,9.03
2023-03-01T15:25:21.126Z,8.53
2023-03-01T15:27:49.926Z,8.23
2023-03-01T15:30:20.726Z,8.07
2023-03-01T15:32:48.888Z,7.53
2023-03-01T15:35:38.469Z,7.70
2023-03-01T15:38:26.206Z,7.63
2023-03-01T15:40:54.831Z,7.80
2023-03-01T15:43:41.489Z,7.20
2023-03-01T15:46:16.483Z,7.30
2023-03-01T15:48:46.950Z,7.53
2023-03-01T15:51:16.606Z,8.10
2023-03-01T15:53:54.182Z,7.47
2023-03-01T15:56:23.360Z,7.03
2023-03-01T15:58:51.605Z,7.27
2023-03-01T16:01:19.955Z,7.27
2023-03-01T16:03:48.194Z,7.80
2023-03-01T16:06:16.349Z,7.80
2023-03-01T16:08:45.734Z,7.83
2023-03-01T16:11:17.396Z,6.83
2023-03-01T16:13:46.206Z,6.67
2023-03-01T16:16:17.167Z,7.13
2023-03-01T16:18:46.076Z,7.23
2023-03-01T16:21:18.124Z,7.03
2023-03-01T16:23:46.952Z,6.83
2023-03-01T16:26:16.704Z,7.60
2023-03-01T16:28:45.367Z,7.13
2023-03-01T16:31:13.815Z,7.70
2023-03-01T16:33:42.421Z,6.60
2023-03-01T16:36:11.269Z,7.60
2023-03-01T16:38:39.833Z,7.93
2023-03-01T16:41:08.758Z,6.93
2023-03-01T16:43:38.373Z,7.13
2023-03-01T16:46:12.276Z,7.97
2023-03-01T16:48:40.578Z,7.43
2023-03-01T16:51:09.456Z,7.00
2023-03-01T16:53:38.922Z,9.63
2023-03-01T16:56:08.656Z,7.40
2023-03-01T16:58:38.413Z,10.10
2023-03-01T17:01:07.690Z,8.60
2023-03-01T17:03:36.300Z,7.67
2023-03-01T17:06:05.255Z,7.53
2023-03-01T17:08:33.521Z,8.63
2023-03-01T17:11:06.029Z,7.63
2023-03-01T17:13:35.286Z,7.77
2023-03-01T17:16:06.578Z,8.80
2023-03-01T17:18:34.873Z,9.70
2023-03-01T17:21:03.461Z,7.83
2023-03-01T17:23:31.977Z,8.00
2023-03-01T17:26:00.150Z,6.67
2023-03-01T17:28:29.490Z,7.63
2023-03-01T17:30:58.170Z,7.33
2023-03-01T17:33:27.713Z,7.87
2023-03-01T17:35:55.881Z,7.13
2023-03-01T17:38:24.087Z,7.17
2023-03-01T17:40:52.262Z,7.57
2023-03-01T17:43:20.747Z,7.40
2023-03-01T17:45:50.658Z,6.80
2023-03-01T17:48:18.996Z,7.07
2023-03-01T17:50:48.490Z,7.83
2023-03-01T17:53:17.064Z,8.70
2023-03-01T17:55:45.803Z,7.93
2023-03-01T17:58:14.528Z,8.30
2023-03-01T18:00:43.058Z,8.30
2023-03-01T18:03:12.032Z,8.10
2023-03-01T18:05:40.205Z,7.77
2023-03-01T18:08:09.769Z,8.13
2023-03-01T18:10:37.981Z,7.70
2023-03-01T18:13:07.022Z,8.07
2023-03-01T18:15:35.423Z,7.53
2023-03-01T18:18:03.791Z,7.53
2023-03-01T18:20:32.813Z,7.43
2023-03-01T18:23:01.022Z,8.17
2023-03-01T18:25:30.579Z,7.43
2023-03-01T18:27:58.720Z,8.23
2023-03-01T18:30:26.852Z,7.37
2023-03-01T18:32:56.337Z,7.23
2023-03-01T18:35:24.895Z,7.23
2023-03-01T18:37:53.087Z,6.73
2023-03-01T18:40:21.412Z,8.20
2023-03-01T18:42:50.946Z,6.90
2023-03-01T18:45:19.263Z,7.77
2023-03-01T18:47:49.751Z,6.80
2023-03-01T18:50:18.005Z,6.97
2023-03-01T18:52:46.174Z,7.23
2023-03-01T18:55:14.390Z,7.03
2023-03-01T18:57:42.562Z,7.47
2023-03-01T19:00:13.048Z,6.70
2023-03-01T19:02:41.284Z,6.10
2023-03-01T19:05:10.119Z,7.17
2023-03-01T19:07:38.292Z,7.53
2023-03-01T19:10:06.925Z,6.70
2023-03-01T19:12:36.567Z,7.27
2023-03-01T19:15:05.296Z,7.30
2023-03-01T19:17:34.818Z,7.50
2023-03-01T19:20:03.176Z,6.83
2023-03-01T19:22:31.843Z,7.40
2023-03-01T19:25:00.024Z,6.70
2023-03-01T19:27:28.161Z,6.63
2023-03-01T19:29:56.306Z,6.60
2023-03-01T19:32:24.538Z,6.50
2023-03-01T19:34:54.066Z,6.80
2023-03-01T19:37:23.744Z,7.60
2023-03-01T19:39:51.924Z,8.03
2023-03-01T19:42:20.089Z,6.83
2023-03-01T19:44:48.323Z,6.57
2023-03-01T19:47:16.475Z,7.83
2023-03-01T19:49:44.634Z,6.93
2023-03-01T19:52:14.128Z,7.30
2023-03-01T19:54:42.270Z,7.00
2023-03-01T19:57:10.420Z,7.27
2023-03-01T19:59:38.721Z,7.40
2023-03-01T20:02:08.049Z,7.60
2023-03-01T20:04:36.246Z,7.37
2023-03-01T20:07:04.398Z,6.80
2023-03-01T20:09:33.905Z,7.80
2023-03-01T20:12:02.039Z,7.97
2023-03-01T20:14:30.197Z,8.10
2023-03-01T20:16:58.331Z,8.13
2023-03-01T20:19:26.518Z,8.03
2023-03-01T20:21:54.646Z,8.77
2023-03-01T20:24:22.806Z,8.13
2023-03-01T20:26:52.342Z,8.70
2023-03-01T20:29:21.686Z,7.63
2023-03-01T20:31:49.987Z,8.17
2023-03-01T20:34:18.324Z,8.47
2023-03-01T20:36:46.506Z,9.47
2023-03-01T20:39:14.679Z,9.20
2023-03-01T20:41:42.940Z,8.77
2023-03-01T20:44:12.456Z,8.60
2023-03-01T20:46:40.656Z,8.50
2023-03-01T20:49:10.533Z,9.33
2023-03-01T20:51:38.917Z,9.30
2023-03-01T20:54:07.122Z,9.43
2023-03-01T20:56:35.627Z,9.47
2023-03-01T20:59:04.729Z,9.37
2023-03-01T21:01:34.408Z,9.90
2023-03-01T21:04:02.656Z,9.17
2023-03-01T21:06:31.641Z,10.67
2023-03-01T21:09:00.158Z,10.47
2023-03-01T21:11:28.365Z,9.83
2023-03-01T21:13:57.023Z,10.23
2023-03-01T21:16:25.513Z,9.90
2023-03-01T21:18:55.124Z,9.63
2023-03-01T21:21:24.023Z,9.03
2023-03-01T21:23:52.216Z,9.77
2023-03-01T21:26:21.606Z,10.27
2023-03-01T21:28:50.867Z,9.07
2023-03-01T21:31:20.144Z,11.17
2023-03-01T21:33:49.211Z,9.97
2023-03-01T21:36:19.034Z,11.30
2023-03-01T21:38:48.256Z,10.97
2023-03-01T21:41:17.126Z,10.57
2023-03-01T21:43:45.991Z,10.70
2023-03-01T21:46:16.040Z,10.50
2023-03-01T21:48:45.290Z,10.00
2023-03-01T21:51:14.859Z,10.27
2023-03-01T21:53:44.874Z,10.97
2023-03-01T21:56:16.927Z,10.60
2023-03-01T21:58:45.233Z,10.30
2023-03-01T22:01:14.818Z,10.00
2023-03-01T22:03:45.825Z,10.10
2023-03-01T22:06:19.102Z,10.23
2023-03-01T22:08:49.713Z,9.60
2023-03-01T22:11:19.036Z,10.47
2023-03-01T22:13:49.229Z,9.60
2023-03-01T22:16:17.466Z,9.87
2023-03-01T22:18:45.668Z,10.47
2023-03-01T22:21:14.426Z,9.90
2023-03-01T22:23:42.926Z,9.37
2023-03-01T22:26:23.820Z,9.40
2023-03-01T22:28:51.966Z,9.60
2023-03-01T22:31:20.195Z,9.83
2023-03-01T22:33:48.430Z,9.80
2023-03-01T22:36:16.634Z,9.07
2023-03-01T22:38:44.820Z,9.03
2023-03-01T22:41:14.321Z,9.43
2023-03-01T22:43:42.533Z,9.43
2023-03-01T22:46:11.446Z,9.07
2023-03-01T22:48:39.642Z,10.33
2023-03-01T22:51:07.855Z,9.30
2023-03-01T22:53:36.052Z,8.97
2023-03-01T22:56:11.871Z,9.13
2023-03-01T22:58:41.570Z,9.23
2023-03-01T23:01:13.934Z,8.60
2023-03-01T23:03:42.394Z,9.57
2023-03-01T23:06:10.806Z,9.03
2023-03-01T23:08:39.320Z,9.20
2023-03-01T23:11:11.798Z,9.00
2023-03-01T23:13:41.381Z,8.20
2023-03-01T23:16:09.653Z,8.93
2023-03-01T23:18:37.881Z,9.07
2023-03-01T23:21:09.212Z,8.23
2023-03-01T23:23:37.404Z,8.47
2023-03-01T23:26:05.923Z,8.43
2023-03-01T23:28:34.392Z,8.63
2023-03-01T23:31:04.792Z,9.20
2023-03-01T23:33:37.699Z,8.17
2023-03-01T23:36:06.586Z,8.53
2023-03-01T23:38:35.151Z,7.97
2023-03-01T23:41:03.318Z,8.43
2023-03-01T23:43:33.050Z,8.37
2023-03-01T23:46:01.249Z,8.47
2023-03-01T23:48:30.803Z,8.70
2023-03-01T23:50:58.983Z,9.23
2023-03-01T23:53:27.154Z,8.20
2023-03-01T23:55:55.899Z,8.93
2023-03-01T23:58:28.275Z,8.87
